sensor_id;sensor_type;location;lat;lon;timestamp;P1;durP1;ratioP1;P2;durP2;ratioP2
51836;SDS011;38941;53.254;6.600;2023-04-03T00:02:00;2.08;;;0.80;;
51836;SDS011;38941;53.254;6.600;2023-04-03T00:04:01;4.53;;;0.90;;
51836;SDS011;38941;53.254;6.600;2023-04-03T00:06:03;1.30;;;0.85;;
51836;SDS011;38941;53.254;6.600;2023-04-03T00:08:07;0.95;;;0.60;;
51836;SDS011;38941;53.254;6.600;2023-04-03T00:10:10;1.40;;;0.60;;
51836;SDS011;38941;53.254;6.600;2023-04-03T00:12:11;3.33;;;1.15;;
51836;SDS011;38941;53.254;6.600;2023-04-03T00:14:13;1.52;;;0.60;;
51836;SDS011;38941;53.254;6.600;2023-04-03T00:16:14;1.75;;;0.60;;
51836;SDS011;38941;53.254;6.600;2023-04-03T00:18:17;3.53;;;0.80;;
51836;SDS011;38941;53.254;6.600;2023-04-03T00:20:17;4.88;;;1.45;;
51836;SDS011;38941;53.254;6.600;2023-04-03T00:22:18;1.77;;;1.20;;
51836;SDS011;38941;53.254;6.600;2023-04-03T00:24:21;2.53;;;0.80;;
51836;SDS011;38941;53.254;6.600;2023-04-03T00:26:23;5.38;;;1.25;;
51836;SDS011;38941;53.254;6.600;2023-04-03T00:28:24;1.25;;;0.50;;
51836;SDS011;38941;53.254;6.600;2023-04-03T00:30:27;2.15;;;0.50;;
51836;SDS011;38941;53.254;6.600;2023-04-03T00:32:28;2.40;;;0.82;;
51836;SDS011;38941;53.254;6.600;2023-04-03T00:34:29;1.70;;;0.90;;
51836;SDS011;38941;53.254;6.600;2023-04-03T00:36:30;1.52;;;0.55;;
51836;SDS011;38941;53.254;6.600;2023-04-03T00:38:31;2.40;;;0.68;;
51836;SDS011;38941;53.254;6.600;2023-04-03T00:40:35;3.38;;;0.68;;
51836;SDS011;38941;53.254;6.600;2023-04-03T00:42:37;1.50;;;0.50;;
51836;SDS011;38941;53.254;6.600;2023-04-03T00:46:41;1.60;;;0.50;;
51836;SDS011;38941;53.254;6.600;2023-04-03T00:48:46;2.15;;;0.50;;
51836;SDS011;38941;53.254;6.600;2023-04-03T00:50:48;1.10;;;0.38;;
51836;SDS011;38941;53.254;6.600;2023-04-03T00:52:51;2.05;;;0.60;;
51836;SDS011;38941;53.254;6.600;2023-04-03T00:54:52;2.10;;;0.60;;
51836;SDS011;38941;53.254;6.600;2023-04-03T00:56:57;1.52;;;0.60;;
51836;SDS011;38941;53.254;6.600;2023-04-03T00:59:02;2.70;;;0.63;;
51836;SDS011;38941;53.254;6.600;2023-04-03T01:01:06;1.38;;;0.65;;
51836;SDS011;38941;53.254;6.600;2023-04-03T01:03:11;2.83;;;0.47;;
51836;SDS011;38941;53.254;6.600;2023-04-03T01:05:13;3.03;;;0.90;;
51836;SDS011;38941;53.254;6.600;2023-04-03T01:07:17;2.75;;;0.60;;
51836;SDS011;38941;53.254;6.600;2023-04-03T01:09:21;3.80;;;1.05;;
51836;SDS011;38941;53.254;6.600;2023-04-03T01:11:22;2.28;;;0.45;;
51836;SDS011;38941;53.254;6.600;2023-04-03T01:13:26;3.92;;;1.05;;
51836;SDS011;38941;53.254;6.600;2023-04-03T01:15:28;1.70;;;0.95;;
51836;SDS011;38941;53.254;6.600;2023-04-03T01:17:36;2.00;;;0.55;;
51836;SDS011;38941;53.254;6.600;2023-04-03T01:19:40;1.25;;;0.52;;
51836;SDS011;38941;53.254;6.600;2023-04-03T01:21:50;2.50;;;1.15;;
51836;SDS011;38941;53.254;6.600;2023-04-03T01:24:07;1.65;;;0.70;;
51836;SDS011;38941;53.254;6.600;2023-04-03T01:26:18;1.95;;;0.80;;
51836;SDS011;38941;53.254;6.600;2023-04-03T01:28:21;3.88;;;0.90;;
51836;SDS011;38941;53.254;6.600;2023-04-03T01:30:31;1.88;;;0.60;;
51836;SDS011;38941;53.254;6.600;2023-04-03T01:32:37;5.63;;;1.08;;
51836;SDS011;38941;53.254;6.600;2023-04-03T01:34:39;2.28;;;0.73;;
51836;SDS011;38941;53.254;6.600;2023-04-03T01:36:40;3.28;;;1.10;;
51836;SDS011;38941;53.254;6.600;2023-04-03T01:38:41;1.30;;;0.52;;
51836;SDS011;38941;53.254;6.600;2023-04-03T01:40:41;5.57;;;1.15;;
51836;SDS011;38941;53.254;6.600;2023-04-03T01:42:43;2.65;;;0.70;;
51836;SDS011;38941;53.254;6.600;2023-04-03T01:44:44;3.55;;;0.73;;
51836;SDS011;38941;53.254;6.600;2023-04-03T01:46:46;5.95;;;1.15;;
51836;SDS011;38941;53.254;6.600;2023-04-03T01:48:47;4.72;;;0.80;;
51836;SDS011;38941;53.254;6.600;2023-04-03T01:50:48;2.58;;;0.60;;
51836;SDS011;38941;53.254;6.600;2023-04-03T01:52:50;3.55;;;0.70;;
51836;SDS011;38941;53.254;6.600;2023-04-03T01:54:51;1.80;;;0.98;;
51836;SDS011;38941;53.254;6.600;2023-04-03T01:56:52;5.28;;;0.82;;
51836;SDS011;38941;53.254;6.600;2023-04-03T01:58:55;4.43;;;0.70;;
51836;SDS011;38941;53.254;6.600;2023-04-03T02:00:56;4.03;;;0.80;;
51836;SDS011;38941;53.254;6.600;2023-04-03T02:02:59;4.45;;;0.82;;
51836;SDS011;38941;53.254;6.600;2023-04-03T02:05:01;4.43;;;1.05;;
51836;SDS011;38941;53.254;6.600;2023-04-03T02:07:03;2.10;;;0.90;;
51836;SDS011;38941;53.254;6.600;2023-04-03T02:09:04;3.75;;;0.90;;
51836;SDS011;38941;53.254;6.600;2023-04-03T02:11:06;5.43;;;0.90;;
51836;SDS011;38941;53.254;6.600;2023-04-03T02:13:07;7.20;;;0.80;;
51836;SDS011;38941;53.254;6.600;2023-04-03T02:15:09;4.80;;;1.20;;
51836;SDS011;38941;53.254;6.600;2023-04-03T02:17:11;8.25;;;0.93;;
51836;SDS011;38941;53.254;6.600;2023-04-03T02:19:12;1.73;;;0.65;;
51836;SDS011;38941;53.254;6.600;2023-04-03T02:21:14;2.78;;;0.70;;
51836;SDS011;38941;53.254;6.600;2023-04-03T02:23:16;3.92;;;0.90;;
51836;SDS011;38941;53.254;6.600;2023-04-03T02:26:19;3.30;;;0.80;;
51836;SDS011;38941;53.254;6.600;2023-04-03T02:28:20;4.75;;;1.02;;
51836;SDS011;38941;53.254;6.600;2023-04-03T02:30:21;1.90;;;0.88;;
51836;SDS011;38941;53.254;6.600;2023-04-03T02:32:23;3.10;;;0.63;;
51836;SDS011;38941;53.254;6.600;2023-04-03T02:34:25;3.13;;;0.95;;
51836;SDS011;38941;53.254;6.600;2023-04-03T02:36:26;3.38;;;1.08;;
51836;SDS011;38941;53.254;6.600;2023-04-03T02:38:28;4.72;;;1.52;;
51836;SDS011;38941;53.254;6.600;2023-04-03T02:40:29;4.90;;;1.42;;
51836;SDS011;38941;53.254;6.600;2023-04-03T02:42:31;5.40;;;1.10;;
51836;SDS011;38941;53.254;6.600;2023-04-03T02:44:33;4.85;;;0.98;;
51836;SDS011;38941;53.254;6.600;2023-04-03T02:46:36;3.95;;;0.88;;
51836;SDS011;38941;53.254;6.600;2023-04-03T02:48:37;8.45;;;0.88;;
51836;SDS011;38941;53.254;6.600;2023-04-03T02:50:37;6.47;;;1.13;;
51836;SDS011;38941;53.254;6.600;2023-04-03T02:52:39;7.22;;;0.90;;
51836;SDS011;38941;53.254;6.600;2023-04-03T02:54:40;5.38;;;1.00;;
51836;SDS011;38941;53.254;6.600;2023-04-03T02:56:41;4.35;;;0.90;;
51836;SDS011;38941;53.254;6.600;2023-04-03T02:58:41;3.42;;;1.13;;
51836;SDS011;38941;53.254;6.600;2023-04-03T03:00:44;2.63;;;0.90;;
51836;SDS011;38941;53.254;6.600;2023-04-03T03:02:45;7.68;;;1.33;;
51836;SDS011;38941;53.254;6.600;2023-04-03T03:04:45;5.30;;;1.10;;
51836;SDS011;38941;53.254;6.600;2023-04-03T03:06:46;5.07;;;1.02;;
51836;SDS011;38941;53.254;6.600;2023-04-03T03:08:48;5.38;;;0.98;;
51836;SDS011;38941;53.254;6.600;2023-04-03T03:10:48;3.10;;;0.82;;
51836;SDS011;38941;53.254;6.600;2023-04-03T03:12:53;3.75;;;1.05;;
51836;SDS011;38941;53.254;6.600;2023-04-03T03:14:54;5.53;;;1.02;;
51836;SDS011;38941;53.254;6.600;2023-04-03T03:16:55;3.60;;;1.23;;
51836;SDS011;38941;53.254;6.600;2023-04-03T03:18:56;5.35;;;1.00;;
51836;SDS011;38941;53.254;6.600;2023-04-03T03:21:00;3.80;;;1.10;;
51836;SDS011;38941;53.254;6.600;2023-04-03T03:23:02;4.72;;;1.60;;
51836;SDS011;38941;53.254;6.600;2023-04-03T03:25:06;6.25;;;0.80;;
51836;SDS011;38941;53.254;6.600;2023-04-03T03:27:08;3.22;;;1.00;;
51836;SDS011;38941;53.254;6.600;2023-04-03T03:29:10;5.22;;;1.23;;
51836;SDS011;38941;53.254;6.600;2023-04-03T03:31:12;5.47;;;1.10;;
51836;SDS011;38941;53.254;6.600;2023-04-03T03:33:13;4.78;;;0.90;;
51836;SDS011;38941;53.254;6.600;2023-04-03T03:35:16;5.03;;;1.60;;
51836;SDS011;38941;53.254;6.600;2023-04-03T03:37:18;5.72;;;1.40;;
51836;SDS011;38941;53.254;6.600;2023-04-03T03:39:20;7.38;;;1.63;;
51836;SDS011;38941;53.254;6.600;2023-04-03T03:41:21;5.80;;;1.77;;
51836;SDS011;38941;53.254;6.600;2023-04-03T03:43:24;4.43;;;1.55;;
51836;SDS011;38941;53.254;6.600;2023-04-03T03:45:26;3.28;;;1.08;;
51836;SDS011;38941;53.254;6.600;2023-04-03T03:47:28;3.65;;;1.25;;
51836;SDS011;38941;53.254;6.600;2023-04-03T03:49:29;5.32;;;1.00;;
51836;SDS011;38941;53.254;6.600;2023-04-03T03:51:30;3.47;;;1.10;;
51836;SDS011;38941;53.254;6.600;2023-04-03T03:53:32;3.28;;;0.95;;
51836;SDS011;38941;53.254;6.600;2023-04-03T03:55:33;2.78;;;0.90;;
51836;SDS011;38941;53.254;6.600;2023-04-03T03:57:36;2.85;;;1.00;;
51836;SDS011;38941;53.254;6.600;2023-04-03T03:59:37;3.53;;;0.95;;
51836;SDS011;38941;53.254;6.600;2023-04-03T04:01:39;2.13;;;0.93;;
51836;SDS011;38941;53.254;6.600;2023-04-03T04:03:39;8.13;;;1.10;;
51836;SDS011;38941;53.254;6.600;2023-04-03T04:05:44;5.13;;;1.20;;
51836;SDS011;38941;53.254;6.600;2023-04-03T04:07:46;9.02;;;1.33;;
51836;SDS011;38941;53.254;6.600;2023-04-03T04:09:48;4.00;;;1.20;;
51836;SDS011;38941;53.254;6.600;2023-04-03T04:11:50;4.03;;;1.00;;
51836;SDS011;38941;53.254;6.600;2023-04-03T04:13:52;1.83;;;1.08;;
51836;SDS011;38941;53.254;6.600;2023-04-03T04:15:54;4.28;;;1.02;;
51836;SDS011;38941;53.254;6.600;2023-04-03T04:18:01;1.63;;;0.90;;
51836;SDS011;38941;53.254;6.600;2023-04-03T04:20:02;4.40;;;0.90;;
51836;SDS011;38941;53.254;6.600;2023-04-03T04:22:07;6.88;;;2.05;;
51836;SDS011;38941;53.254;6.600;2023-04-03T04:24:08;9.60;;;1.58;;
51836;SDS011;38941;53.254;6.600;2023-04-03T04:26:13;7.93;;;1.73;;
51836;SDS011;38941;53.254;6.600;2023-04-03T04:28:14;5.05;;;1.92;;
51836;SDS011;38941;53.254;6.600;2023-04-03T04:30:15;2.83;;;1.00;;
51836;SDS011;38941;53.254;6.600;2023-04-03T04:32:16;6.53;;;1.70;;
51836;SDS011;38941;53.254;6.600;2023-04-03T04:34:19;5.05;;;1.20;;
51836;SDS011;38941;53.254;6.600;2023-04-03T04:36:21;4.95;;;1.27;;
51836;SDS011;38941;53.254;6.600;2023-04-03T04:38:27;10.35;;;1.50;;
51836;SDS011;38941;53.254;6.600;2023-04-03T04:40:29;3.05;;;0.93;;
51836;SDS011;38941;53.254;6.600;2023-04-03T04:42:32;4.72;;;1.85;;
51836;SDS011;38941;53.254;6.600;2023-04-03T04:44:34;4.90;;;1.30;;
51836;SDS011;38941;53.254;6.600;2023-04-03T04:46:37;6.88;;;1.83;;
51836;SDS011;38941;53.254;6.600;2023-04-03T04:48:39;2.47;;;1.13;;
51836;SDS011;38941;53.254;6.600;2023-04-03T04:50:40;2.85;;;1.88;;
51836;SDS011;38941;53.254;6.600;2023-04-03T04:52:41;3.35;;;1.60;;
51836;SDS011;38941;53.254;6.600;2023-04-03T04:54:43;6.03;;;1.40;;
51836;SDS011;38941;53.254;6.600;2023-04-03T04:56:43;4.15;;;1.40;;
51836;SDS011;38941;53.254;6.600;2023-04-03T04:58:45;4.07;;;1.55;;
51836;SDS011;38941;53.254;6.600;2023-04-03T05:00:46;5.75;;;1.38;;
51836;SDS011;38941;53.254;6.600;2023-04-03T05:02:48;5.38;;;1.20;;
51836;SDS011;38941;53.254;6.600;2023-04-03T05:04:57;6.97;;;1.27;;
51836;SDS011;38941;53.254;6.600;2023-04-03T05:06:58;7.75;;;1.42;;
51836;SDS011;38941;53.254;6.600;2023-04-03T05:09:01;3.00;;;1.40;;
51836;SDS011;38941;53.254;6.600;2023-04-03T05:11:02;5.10;;;1.95;;
51836;SDS011;38941;53.254;6.600;2023-04-03T05:13:03;4.60;;;1.25;;
51836;SDS011;38941;53.254;6.600;2023-04-03T05:15:05;2.55;;;1.05;;
51836;SDS011;38941;53.254;6.600;2023-04-03T05:17:07;5.68;;;1.98;;
51836;SDS011;38941;53.254;6.600;2023-04-03T05:19:08;6.43;;;1.40;;
51836;SDS011;38941;53.254;6.600;2023-04-03T05:21:10;4.80;;;1.40;;
51836;SDS011;38941;53.254;6.600;2023-04-03T05:23:11;5.90;;;1.30;;
51836;SDS011;38941;53.254;6.600;2023-04-03T05:25:12;5.55;;;1.33;;
51836;SDS011;38941;53.254;6.600;2023-04-03T05:27:14;6.68;;;1.98;;
51836;SDS011;38941;53.254;6.600;2023-04-03T05:29:14;5.13;;;1.50;;
51836;SDS011;38941;53.254;6.600;2023-04-03T05:31:16;7.32;;;1.38;;
51836;SDS011;38941;53.254;6.600;2023-04-03T05:33:18;5.53;;;1.58;;
51836;SDS011;38941;53.254;6.600;2023-04-03T05:35:19;2.75;;;1.05;;
51836;SDS011;38941;53.254;6.600;2023-04-03T05:37:22;4.15;;;1.80;;
51836;SDS011;38941;53.254;6.600;2023-04-03T05:39:24;4.30;;;1.40;;
51836;SDS011;38941;53.254;6.600;2023-04-03T05:41:27;9.75;;;2.22;;
51836;SDS011;38941;53.254;6.600;2023-04-03T05:43:30;13.73;;;2.58;;
51836;SDS011;38941;53.254;6.600;2023-04-03T05:45:32;4.53;;;1.30;;
51836;SDS011;38941;53.254;6.600;2023-04-03T05:47:33;3.90;;;1.30;;
51836;SDS011;38941;53.254;6.600;2023-04-03T05:49:34;6.00;;;1.50;;
51836;SDS011;38941;53.254;6.600;2023-04-03T05:51:36;4.15;;;1.65;;
51836;SDS011;38941;53.254;6.600;2023-04-03T05:53:39;4.55;;;1.95;;
51836;SDS011;38941;53.254;6.600;2023-04-03T05:55:42;5.85;;;1.63;;
51836;SDS011;38941;53.254;6.600;2023-04-03T05:57:43;5.15;;;1.30;;
51836;SDS011;38941;53.254;6.600;2023-04-03T05:59:46;4.78;;;1.38;;
51836;SDS011;38941;53.254;6.600;2023-04-03T06:01:48;4.22;;;1.50;;
51836;SDS011;38941;53.254;6.600;2023-04-03T06:03:50;4.68;;;1.25;;
51836;SDS011;38941;53.254;6.600;2023-04-03T06:05:55;4.50;;;1.50;;
51836;SDS011;38941;53.254;6.600;2023-04-03T06:07:57;5.05;;;1.23;;
51836;SDS011;38941;53.254;6.600;2023-04-03T06:09:59;5.57;;;1.70;;
51836;SDS011;38941;53.254;6.600;2023-04-03T06:12:02;5.43;;;1.70;;
51836;SDS011;38941;53.254;6.600;2023-04-03T06:14:03;6.25;;;1.83;;
51836;SDS011;38941;53.254;6.600;2023-04-03T06:16:04;4.50;;;1.80;;
51836;SDS011;38941;53.254;6.600;2023-04-03T06:18:05;5.85;;;1.75;;
51836;SDS011;38941;53.254;6.600;2023-04-03T06:20:06;5.32;;;1.60;;
51836;SDS011;38941;53.254;6.600;2023-04-03T06:22:07;4.72;;;1.45;;
51836;SDS011;38941;53.254;6.600;2023-04-03T06:24:09;2.63;;;1.50;;
51836;SDS011;38941;53.254;6.600;2023-04-03T06:26:16;6.97;;;1.67;;
51836;SDS011;38941;53.254;6.600;2023-04-03T06:28:17;42.13;;;2.67;;
51836;SDS011;38941;53.254;6.600;2023-04-03T06:30:20;30.45;;;2.78;;
51836;SDS011;38941;53.254;6.600;2023-04-03T06:32:22;4.40;;;1.45;;
51836;SDS011;38941;53.254;6.600;2023-04-03T06:34:24;4.90;;;1.20;;
51836;SDS011;38941;53.254;6.600;2023-04-03T06:36:26;2.70;;;1.65;;
51836;SDS011;38941;53.254;6.600;2023-04-03T06:38:34;4.32;;;1.33;;
51836;SDS011;38941;53.254;6.600;2023-04-03T06:40:35;5.82;;;1.67;;
51836;SDS011;38941;53.254;6.600;2023-04-03T06:42:43;7.65;;;1.58;;
51836;SDS011;38941;53.254;6.600;2023-04-03T06:44:44;6.45;;;1.45;;
51836;SDS011;38941;53.254;6.600;2023-04-03T06:48:50;5.78;;;1.73;;
51836;SDS011;38941;53.254;6.600;2023-04-03T06:50:55;6.97;;;1.48;;
51836;SDS011;38941;53.254;6.600;2023-04-03T06:52:57;6.57;;;1.38;;
51836;SDS011;38941;53.254;6.600;2023-04-03T06:54:58;7.68;;;1.95;;
51836;SDS011;38941;53.254;6.600;2023-04-03T06:56:59;5.00;;;1.48;;
51836;SDS011;38941;53.254;6.600;2023-04-03T06:59:01;9.88;;;3.03;;
51836;SDS011;38941;53.254;6.600;2023-04-03T07:01:03;6.93;;;1.77;;
51836;SDS011;38941;53.254;6.600;2023-04-03T07:03:06;2.72;;;1.60;;
51836;SDS011;38941;53.254;6.600;2023-04-03T07:05:07;7.85;;;2.60;;
51836;SDS011;38941;53.254;6.600;2023-04-03T07:07:10;9.43;;;1.80;;
51836;SDS011;38941;53.254;6.600;2023-04-03T07:09:10;38.35;;;6.00;;
51836;SDS011;38941;53.254;6.600;2023-04-03T07:11:12;7.80;;;2.38;;
51836;SDS011;38941;53.254;6.600;2023-04-03T07:13:14;7.60;;;2.20;;
51836;SDS011;38941;53.254;6.600;2023-04-03T07:15:15;5.15;;;1.55;;
51836;SDS011;38941;53.254;6.600;2023-04-03T07:17:16;5.75;;;1.77;;
51836;SDS011;38941;53.254;6.600;2023-04-03T07:19:17;6.35;;;1.90;;
51836;SDS011;38941;53.254;6.600;2023-04-03T07:21:18;5.25;;;1.60;;
51836;SDS011;38941;53.254;6.600;2023-04-03T07:23:19;5.63;;;1.58;;
51836;SDS011;38941;53.254;6.600;2023-04-03T07:25:20;8.63;;;2.05;;
51836;SDS011;38941;53.254;6.600;2023-04-03T07:27:22;8.80;;;2.20;;
51836;SDS011;38941;53.254;6.600;2023-04-03T07:29:23;6.20;;;1.75;;
51836;SDS011;38941;53.254;6.600;2023-04-03T07:31:24;7.18;;;1.30;;
51836;SDS011;38941;53.254;6.600;2023-04-03T07:33:25;3.72;;;1.50;;
51836;SDS011;38941;53.254;6.600;2023-04-03T07:35:26;9.02;;;1.92;;
51836;SDS011;38941;53.254;6.600;2023-04-03T07:37:27;9.77;;;2.38;;
51836;SDS011;38941;53.254;6.600;2023-04-03T07:39:28;3.25;;;1.48;;
51836;SDS011;38941;53.254;6.600;2023-04-03T07:41:29;6.70;;;1.98;;
51836;SDS011;38941;53.254;6.600;2023-04-03T07:43:30;6.18;;;1.40;;
51836;SDS011;38941;53.254;6.600;2023-04-03T07:45:31;18.38;;;2.25;;
51836;SDS011;38941;53.254;6.600;2023-04-03T07:47:34;4.90;;;1.55;;
51836;SDS011;38941;53.254;6.600;2023-04-03T07:49:35;3.05;;;1.10;;
51836;SDS011;38941;53.254;6.600;2023-04-03T07:51:40;5.47;;;1.60;;
51836;SDS011;38941;53.254;6.600;2023-04-03T07:53:42;4.22;;;1.30;;
51836;SDS011;38941;53.254;6.600;2023-04-03T07:55:46;5.60;;;1.00;;
51836;SDS011;38941;53.254;6.600;2023-04-03T07:57:49;6.50;;;1.60;;
51836;SDS011;38941;53.254;6.600;2023-04-03T07:59:50;3.38;;;1.10;;
51836;SDS011;38941;53.254;6.600;2023-04-03T08:01:53;4.90;;;1.27;;
51836;SDS011;38941;53.254;6.600;2023-04-03T08:03:55;3.58;;;1.20;;
51836;SDS011;38941;53.254;6.600;2023-04-03T08:06:03;10.00;;;2.67;;
51836;SDS011;38941;53.254;6.600;2023-04-03T08:08:07;4.35;;;1.52;;
51836;SDS011;38941;53.254;6.600;2023-04-03T08:10:09;11.10;;;2.63;;
51836;SDS011;38941;53.254;6.600;2023-04-03T08:12:10;9.68;;;3.03;;
51836;SDS011;38941;53.254;6.600;2023-04-03T08:14:12;3.22;;;1.10;;
51836;SDS011;38941;53.254;6.600;2023-04-03T08:16:17;6.85;;;2.10;;
51836;SDS011;38941;53.254;6.600;2023-04-03T08:18:20;5.28;;;1.30;;
51836;SDS011;38941;53.254;6.600;2023-04-03T08:20:25;4.72;;;1.45;;
51836;SDS011;38941;53.254;6.600;2023-04-03T08:22:27;5.13;;;1.17;;
51836;SDS011;38941;53.254;6.600;2023-04-03T08:24:28;4.82;;;1.40;;
51836;SDS011;38941;53.254;6.600;2023-04-03T08:26:30;3.60;;;1.55;;
51836;SDS011;38941;53.254;6.600;2023-04-03T08:28:32;5.68;;;2.33;;
51836;SDS011;38941;53.254;6.600;2023-04-03T08:30:33;6.15;;;1.30;;
51836;SDS011;38941;53.254;6.600;2023-04-03T08:32:34;6.13;;;1.50;;
51836;SDS011;38941;53.254;6.600;2023-04-03T08:34:36;5.60;;;1.60;;
51836;SDS011;38941;53.254;6.600;2023-04-03T08:36:39;4.65;;;1.38;;
51836;SDS011;38941;53.254;6.600;2023-04-03T08:38:40;5.93;;;1.70;;
51836;SDS011;38941;53.254;6.600;2023-04-03T08:40:41;6.22;;;1.67;;
51836;SDS011;38941;53.254;6.600;2023-04-03T08:42:53;3.08;;;1.15;;
51836;SDS011;38941;53.254;6.600;2023-04-03T08:45:07;4.25;;;1.50;;
51836;SDS011;38941;53.254;6.600;2023-04-03T09:56:57;1.08;;;0.63;;
51836;SDS011;38941;53.254;6.600;2023-04-03T09:59:08;4.38;;;0.70;;
51836;SDS011;38941;53.254;6.600;2023-04-03T10:01:28;2.80;;;0.70;;
51836;SDS011;38941;53.254;6.600;2023-04-03T10:03:36;3.50;;;0.65;;
51836;SDS011;38941;53.254;6.600;2023-04-03T10:05:40;5.75;;;0.68;;
51836;SDS011;38941;53.254;6.600;2023-04-03T10:07:42;3.35;;;1.05;;
51836;SDS011;38941;53.254;6.600;2023-04-03T10:09:43;1.38;;;0.70;;
51836;SDS011;38941;53.254;6.600;2023-04-03T10:12:00;3.67;;;0.93;;
51836;SDS011;38941;53.254;6.600;2023-04-03T10:14:10;3.08;;;1.27;;
51836;SDS011;38941;53.254;6.600;2023-04-03T10:16:18;3.92;;;1.10;;
51836;SDS011;38941;53.254;6.600;2023-04-03T10:18:47;4.32;;;0.80;;
51836;SDS011;38941;53.254;6.600;2023-04-03T10:20:56;2.60;;;0.90;;
51836;SDS011;38941;53.254;6.600;2023-04-03T10:25:32;2.45;;;0.80;;
51836;SDS011;38941;53.254;6.600;2023-04-03T10:27:43;2.63;;;0.40;;
51836;SDS011;38941;53.254;6.600;2023-04-03T10:32:41;1.75;;;0.40;;
51836;SDS011;38941;53.254;6.600;2023-04-03T10:35:10;0.82;;;0.50;;
51836;SDS011;38941;53.254;6.600;2023-04-03T10:37:52;0.90;;;0.50;;
51836;SDS011;38941;53.254;6.600;2023-04-03T10:42:38;3.28;;;1.08;;
51836;SDS011;38941;53.254;6.600;2023-04-03T10:44:57;1.20;;;0.70;;
51836;SDS011;38941;53.254;6.600;2023-04-03T10:47:02;1.90;;;0.77;;
51836;SDS011;38941;53.254;6.600;2023-04-03T10:53:32;1.45;;;0.82;;
51836;SDS011;38941;53.254;6.600;2023-04-03T10:55:40;2.92;;;0.65;;
51836;SDS011;38941;53.254;6.600;2023-04-03T10:57:50;2.38;;;0.60;;
51836;SDS011;38941;53.254;6.600;2023-04-03T11:00:03;3.47;;;0.60;;
51836;SDS011;38941;53.254;6.600;2023-04-03T11:04:31;1.70;;;0.50;;
51836;SDS011;38941;53.254;6.600;2023-04-03T11:06:37;2.05;;;0.60;;
51836;SDS011;38941;53.254;6.600;2023-04-03T11:08:45;10.13;;;0.87;;
51836;SDS011;38941;53.254;6.600;2023-04-03T11:10:59;4.25;;;1.38;;
51836;SDS011;38941;53.254;6.600;2023-04-03T11:13:26;4.53;;;0.60;;
51836;SDS011;38941;53.254;6.600;2023-04-03T11:15:31;2.88;;;1.38;;
51836;SDS011;38941;53.254;6.600;2023-04-03T11:17:35;2.72;;;0.70;;
51836;SDS011;38941;53.254;6.600;2023-04-03T11:22:04;1.13;;;0.60;;
51836;SDS011;38941;53.254;6.600;2023-04-03T11:24:25;0.47;;;0.40;;
51836;SDS011;38941;53.254;6.600;2023-04-03T11:26:31;3.03;;;0.73;;
51836;SDS011;38941;53.254;6.600;2023-04-03T11:28:38;2.55;;;0.90;;
51836;SDS011;38941;53.254;6.600;2023-04-03T11:30:44;1.13;;;0.47;;
51836;SDS011;38941;53.254;6.600;2023-04-03T11:37:51;2.25;;;0.65;;
51836;SDS011;38941;53.254;6.600;2023-04-03T11:39:40;2.47;;;1.00;;
51836;SDS011;38941;53.254;6.600;2023-04-03T11:41:50;2.47;;;0.50;;
51836;SDS011;38941;53.254;6.600;2023-04-03T11:43:59;1.48;;;0.50;;
51836;SDS011;38941;53.254;6.600;2023-04-03T11:46:02;14.77;;;1.15;;
51836;SDS011;38941;53.254;6.600;2023-04-03T11:48:09;2.75;;;0.60;;
51836;SDS011;38941;53.254;6.600;2023-04-03T11:54:47;2.90;;;0.40;;
51836;SDS011;38941;53.254;6.600;2023-04-03T11:56:48;2.15;;;0.45;;
51836;SDS011;38941;53.254;6.600;2023-04-03T11:59:15;1.73;;;0.90;;
51836;SDS011;38941;53.254;6.600;2023-04-03T12:04:05;1.10;;;0.93;;
51836;SDS011;38941;53.254;6.600;2023-04-03T12:08:24;4.30;;;0.60;;
51836;SDS011;38941;53.254;6.600;2023-04-03T12:10:29;2.47;;;0.57;;
51836;SDS011;38941;53.254;6.600;2023-04-03T12:12:32;2.05;;;0.70;;
51836;SDS011;38941;53.254;6.600;2023-04-03T12:14:39;1.92;;;0.57;;
51836;SDS011;38941;53.254;6.600;2023-04-03T12:18:42;1.48;;;0.60;;
51836;SDS011;38941;53.254;6.600;2023-04-03T12:20:54;3.22;;;0.50;;
51836;SDS011;38941;53.254;6.600;2023-04-03T12:23:55;1.05;;;0.40;;
51836;SDS011;38941;53.254;6.600;2023-04-03T12:25:47;0.73;;;0.45;;
51836;SDS011;38941;53.254;6.600;2023-04-03T12:27:50;1.73;;;0.50;;
51836;SDS011;38941;53.254;6.600;2023-04-03T12:29:59;3.72;;;0.68;;
51836;SDS011;38941;53.254;6.600;2023-04-03T12:32:13;0.85;;;0.50;;
51836;SDS011;38941;53.254;6.600;2023-04-03T12:42:13;2.20;;;0.45;;
51836;SDS011;38941;53.254;6.600;2023-04-03T12:46:53;2.40;;;0.52;;
51836;SDS011;38941;53.254;6.600;2023-04-03T12:48:56;1.75;;;0.93;;
51836;SDS011;38941;53.254;6.600;2023-04-03T12:50:58;1.88;;;0.73;;
51836;SDS011;38941;53.254;6.600;2023-04-03T12:53:06;1.38;;;0.60;;
51836;SDS011;38941;53.254;6.600;2023-04-03T12:55:15;2.08;;;0.60;;
51836;SDS011;38941;53.254;6.600;2023-04-03T12:57:18;2.00;;;0.57;;
51836;SDS011;38941;53.254;6.600;2023-04-03T12:59:27;1.70;;;0.50;;
51836;SDS011;38941;53.254;6.600;2023-04-03T13:01:28;2.10;;;0.60;;
51836;SDS011;38941;53.254;6.600;2023-04-03T13:03:30;0.80;;;0.40;;
51836;SDS011;38941;53.254;6.600;2023-04-03T13:05:31;3.20;;;0.50;;
51836;SDS011;38941;53.254;6.600;2023-04-03T13:07:35;1.02;;;0.40;;
51836;SDS011;38941;53.254;6.600;2023-04-03T13:09:39;3.58;;;0.80;;
51836;SDS011;38941;53.254;6.600;2023-04-03T13:11:40;2.45;;;0.50;;
51836;SDS011;38941;53.254;6.600;2023-04-03T13:13:56;1.45;;;0.50;;
51836;SDS011;38941;53.254;6.600;2023-04-03T13:15:58;3.55;;;0.60;;
51836;SDS011;38941;53.254;6.600;2023-04-03T13:17:59;2.50;;;0.50;;
51836;SDS011;38941;53.254;6.600;2023-04-03T13:20:11;2.10;;;0.60;;
51836;SDS011;38941;53.254;6.600;2023-04-03T13:24:34;3.13;;;0.75;;
51836;SDS011;38941;53.254;6.600;2023-04-03T13:26:37;1.00;;;0.50;;
51836;SDS011;38941;53.254;6.600;2023-04-03T13:28:39;1.73;;;0.50;;
51836;SDS011;38941;53.254;6.600;2023-04-03T13:30:40;3.50;;;1.27;;
51836;SDS011;38941;53.254;6.600;2023-04-03T13:32:55;2.65;;;0.50;;
51836;SDS011;38941;53.254;6.600;2023-04-03T13:34:58;3.95;;;0.77;;
51836;SDS011;38941;53.254;6.600;2023-04-03T13:37:01;1.70;;;0.40;;
51836;SDS011;38941;53.254;6.600;2023-04-03T13:39:20;1.00;;;0.60;;
51836;SDS011;38941;53.254;6.600;2023-04-03T13:41:26;1.45;;;0.73;;
51836;SDS011;38941;53.254;6.600;2023-04-03T13:43:48;2.03;;;0.70;;
51836;SDS011;38941;53.254;6.600;2023-04-03T13:53:03;2.03;;;0.70;;
51836;SDS011;38941;53.254;6.600;2023-04-03T13:55:21;3.08;;;0.93;;
51836;SDS011;38941;53.254;6.600;2023-04-03T13:57:31;2.13;;;0.60;;
51836;SDS011;38941;53.254;6.600;2023-04-03T13:59:33;2.03;;;0.60;;
51836;SDS011;38941;53.254;6.600;2023-04-03T14:01:43;1.15;;;0.60;;
51836;SDS011;38941;53.254;6.600;2023-04-03T14:04:09;3.20;;;1.00;;
51836;SDS011;38941;53.254;6.600;2023-04-03T14:06:16;3.70;;;1.77;;
51836;SDS011;38941;53.254;6.600;2023-04-03T14:08:18;4.97;;;0.68;;
51836;SDS011;38941;53.254;6.600;2023-04-03T14:10:19;2.63;;;0.80;;
51836;SDS011;38941;53.254;6.600;2023-04-03T14:12:24;2.10;;;0.70;;
51836;SDS011;38941;53.254;6.600;2023-04-03T14:14:30;2.55;;;0.80;;
51836;SDS011;38941;53.254;6.600;2023-04-03T14:16:34;3.53;;;0.57;;
51836;SDS011;38941;53.254;6.600;2023-04-03T14:18:39;2.08;;;0.85;;
51836;SDS011;38941;53.254;6.600;2023-04-03T14:20:40;1.52;;;0.68;;
51836;SDS011;38941;53.254;6.600;2023-04-03T14:22:42;1.67;;;0.50;;
51836;SDS011;38941;53.254;6.600;2023-04-03T14:24:45;2.13;;;0.68;;
51836;SDS011;38941;53.254;6.600;2023-04-03T14:26:47;2.03;;;0.60;;
51836;SDS011;38941;53.254;6.600;2023-04-03T14:28:50;2.05;;;0.77;;
51836;SDS011;38941;53.254;6.600;2023-04-03T14:30:53;2.13;;;0.60;;
51836;SDS011;38941;53.254;6.600;2023-04-03T14:32:54;1.98;;;0.50;;
51836;SDS011;38941;53.254;6.600;2023-04-03T14:34:56;1.38;;;0.40;;
51836;SDS011;38941;53.254;6.600;2023-04-03T14:37:00;1.05;;;0.43;;